createdAt,value
2018-01-19T00:00:09.478Z,11.80
2018-01-19T00:02:38.522Z,11.80
2018-01-19T00:05:07.403Z,11.80
2018-01-19T00:07:36.416Z,11.80
2018-01-19T00:10:05.499Z,11.80
2018-01-19T00:12:34.387Z,11.80
2018-01-19T00:15:03.334Z,11.80
2018-01-19T00:17:32.175Z,11.80
2018-01-19T00:20:01.064Z,11.70
2018-01-19T00:22:41.601Z,11.70
2018-01-19T00:25:10.521Z,11.70
2018-01-19T00:27:39.797Z,11.80
2018-01-19T00:30:08.816Z,11.80
2018-01-19T00:32:38.224Z,11.80
2018-01-19T00:35:07.112Z,11.80
2018-01-19T00:37:35.910Z,11.80
2018-01-19T00:40:05.837Z,11.80
2018-01-19T00:42:34.993Z,11.80
2018-01-19T00:45:04.073Z,11.90
2018-01-19T00:47:33.320Z,11.90
2018-01-19T00:50:02.378Z,11.90
2018-01-19T00:52:31.585Z,11.90
2018-01-19T00:55:00.674Z,11.90
2018-01-19T00:57:29.721Z,11.90
2018-01-19T00:59:59.642Z,11.80
2018-01-19T01:02:29.031Z,11.80
2018-01-19T01:04:58.063Z,11.80
2018-01-19T01:07:27.670Z,11.70
2018-01-19T01:09:56.497Z,11.70
2018-01-19T01:12:25.384Z,11.70
2018-01-19T01:14:54.079Z,11.60
2018-01-19T01:17:22.994Z,11.70
2018-01-19T01:19:51.856Z,11.60
2018-01-19T01:22:20.539Z,11.50
2018-01-19T01:24:49.259Z,11.50
2018-01-19T01:27:18.886Z,11.40
2018-01-19T01:29:47.621Z,11.30
2018-01-19T01:32:16.515Z,11.30
2018-01-19T01:34:45.198Z,11.20
2018-01-19T01:37:13.884Z,11.20
2018-01-19T01:39:42.580Z,11.30
2018-01-19T01:42:11.258Z,11.20
2018-01-19T01:44:39.942Z,11.20
2018-01-19T01:47:08.769Z,11.20
2018-01-19T01:49:38.133Z,11.20
2018-01-19T01:52:06.824Z,11.20
2018-01-19T01:54:35.509Z,11.00
2018-01-19T01:57:04.907Z,11.00
2018-01-19T01:59:40.778Z,11.00
2018-01-19T02:02:09.555Z,11.00
2018-01-19T02:04:38.241Z,11.00
2018-01-19T02:07:06.927Z,11.00
2018-01-19T02:09:35.712Z,11.00
2018-01-19T02:12:04.399Z,11.10
2018-01-19T02:14:33.085Z,11.10
2018-01-19T02:17:01.779Z,11.10
2018-01-19T02:19:30.679Z,11.10
2018-01-19T02:21:59.486Z,11.20
2018-01-19T02:24:29.472Z,11.20
2018-01-19T02:26:58.154Z,11.20
2018-01-19T02:29:27.048Z,11.30
2018-01-19T02:31:55.880Z,11.30
2018-01-19T02:34:24.624Z,11.30
2018-01-19T02:36:53.315Z,11.30
2018-01-19T02:39:21.997Z,11.30
2018-01-19T02:41:50.892Z,11.30
2018-01-19T02:44:19.475Z,11.20
2018-01-19T02:46:48.263Z,11.10
2018-01-19T02:49:17.050Z,11.10
2018-01-19T02:51:45.744Z,11.00
2018-01-19T02:54:14.419Z,10.90
2018-01-19T02:56:43.211Z,11.00
2018-01-19T02:59:12.207Z,11.00
2018-01-19T03:01:40.889Z,11.00
2018-01-19T03:04:09.575Z,11.00
2018-01-19T03:06:38.262Z,11.00
2018-01-19T03:09:06.949Z,10.90
2018-01-19T03:11:35.635Z,11.00
2018-01-19T03:14:04.319Z,11.00
2018-01-19T03:16:33.007Z,10.90
2018-01-19T03:19:01.692Z,10.80
2018-01-19T03:21:30.377Z,10.70
2018-01-19T03:23:59.064Z,10.60
2018-01-19T03:26:27.751Z,10.60
2018-01-19T03:28:56.647Z,10.60
2018-01-19T03:31:25.507Z,10.60
2018-01-19T03:33:54.936Z,10.70
2018-01-19T03:36:23.723Z,10.70
2018-01-19T03:38:52.512Z,10.70
2018-01-19T03:41:21.311Z,10.70
2018-01-19T03:43:50.196Z,10.80
2018-01-19T03:46:19.098Z,10.90
2018-01-19T03:48:47.876Z,10.90
2018-01-19T03:51:16.559Z,10.90
2018-01-19T03:53:45.245Z,10.90
2018-01-19T03:56:13.873Z,10.80
2018-01-19T03:58:42.821Z,10.90
2018-01-19T04:01:11.513Z,10.90
2018-01-19T04:03:40.193Z,10.90
2018-01-19T04:06:08.880Z,10.90
2018-01-19T04:08:37.838Z,10.90
2018-01-19T04:11:06.558Z,10.80
2018-01-19T04:13:35.339Z,10.80
2018-01-19T04:16:04.142Z,10.80
2018-01-19T04:18:33.133Z,10.80
2018-01-19T04:21:02.025Z,10.80
2018-01-19T04:23:30.810Z,10.80
2018-01-19T04:25:59.494Z,10.80
2018-01-19T04:28:28.126Z,10.80
2018-01-19T04:30:56.871Z,10.80
2018-01-19T04:33:25.554Z,10.70
2018-01-19T04:35:54.178Z,10.70
2018-01-19T04:38:23.028Z,10.70
2018-01-19T04:40:51.716Z,10.70
2018-01-19T04:43:21.367Z,10.80
2018-01-19T04:45:50.114Z,10.80
2018-01-19T04:48:19.005Z,10.90
2018-01-19T04:50:47.903Z,10.80
2018-01-19T04:53:16.785Z,10.80
2018-01-19T04:55:45.472Z,10.80
2018-01-19T04:58:14.263Z,10.90
2018-01-19T05:00:42.944Z,10.80
2018-01-19T05:03:11.634Z,10.90
2018-01-19T05:05:40.525Z,10.80
2018-01-19T05:08:09.207Z,10.90
2018-01-19T05:10:37.898Z,10.90
2018-01-19T05:13:06.682Z,10.90
2018-01-19T05:15:35.475Z,10.80
2018-01-19T05:18:04.159Z,10.80
2018-01-19T05:20:33.051Z,10.80
2018-01-19T05:23:01.737Z,10.80
2018-01-19T05:25:31.348Z,10.80
2018-01-19T05:28:00.044Z,10.90
2018-01-19T05:30:28.872Z,10.80
2018-01-19T05:32:58.334Z,10.70
2018-01-19T05:35:27.008Z,10.70
2018-01-19T05:37:55.798Z,10.60
2018-01-19T05:40:24.485Z,10.60
2018-01-19T05:42:53.168Z,10.60
2018-01-19T05:45:21.957Z,10.60
2018-01-19T05:47:50.689Z,10.50
2018-01-19T05:50:19.433Z,10.60
2018-01-19T05:52:48.118Z,10.60
2018-01-19T05:55:16.910Z,10.60
2018-01-19T05:57:45.593Z,10.60
2018-01-19T06:00:14.320Z,10.60
2018-01-19T06:02:43.226Z,10.60
2018-01-19T06:05:11.961Z,10.50
2018-01-19T06:07:40.796Z,10.60
2018-01-19T06:10:09.536Z,10.50
2018-01-19T06:12:38.428Z,10.50
2018-01-19T06:15:07.116Z,10.60
2018-01-19T06:17:35.851Z,10.60
2018-01-19T06:20:04.511Z,10.70
2018-01-19T06:22:33.384Z,10.60
2018-01-19T06:25:02.276Z,10.70
2018-01-19T06:27:31.164Z,10.70
2018-01-19T06:29:59.851Z,10.80
2018-01-19T06:32:28.638Z,10.80
2018-01-19T06:34:57.526Z,10.80
2018-01-19T06:37:26.212Z,10.80
2018-01-19T06:39:54.908Z,10.90
2018-01-19T06:42:23.790Z,10.90
2018-01-19T06:44:52.414Z,11.00
2018-01-19T06:47:21.264Z,10.90
2018-01-19T06:49:50.160Z,11.00
2018-01-19T06:52:19.115Z,11.10
2018-01-19T06:54:48.755Z,11.00
2018-01-19T06:57:17.646Z,11.00
2018-01-19T06:59:46.483Z,11.00
2018-01-19T07:02:15.427Z,11.10
2018-01-19T07:04:44.116Z,11.10
2018-01-19T07:07:12.802Z,11.00
2018-01-19T07:09:41.694Z,11.00
2018-01-19T07:12:10.582Z,11.00
2018-01-19T07:14:39.473Z,11.10
2018-01-19T07:17:08.373Z,11.10
2018-01-19T07:19:37.869Z,11.10
2018-01-19T07:22:06.562Z,11.10
2018-01-19T07:24:35.656Z,11.10
2018-01-19T07:27:04.445Z,11.10
2018-01-19T07:29:33.433Z,11.10
2018-01-19T07:32:02.120Z,11.10
2018-01-19T07:34:31.180Z,11.10
2018-01-19T07:37:00.315Z,11.10
2018-01-19T07:39:29.155Z,11.10
2018-01-19T07:41:58.107Z,11.10
2018-01-19T07:44:28.217Z,11.10
2018-01-19T07:46:56.900Z,11.10
2018-01-19T07:49:25.793Z,11.20
2018-01-19T07:51:54.477Z,11.10
2018-01-19T07:54:23.528Z,11.10
2018-01-19T07:56:52.266Z,11.20
2018-01-19T07:59:20.949Z,11.20
2018-01-19T08:01:49.632Z,11.20
2018-01-19T08:04:18.529Z,11.20
2018-01-19T08:06:47.417Z,11.20
2018-01-19T08:09:16.107Z,11.20
2018-01-19T08:11:45.244Z,11.20
2018-01-19T08:14:14.702Z,11.20
2018-01-19T08:16:43.397Z,11.20
2018-01-19T08:19:12.385Z,11.20
2018-01-19T08:21:41.171Z,11.10
2018-01-19T08:24:09.855Z,11.10
2018-01-19T08:26:38.746Z,11.10
2018-01-19T08:29:07.434Z,10.90
2018-01-19T08:31:36.123Z,10.90
2018-01-19T08:34:05.014Z,11.10
2018-01-19T08:36:34.170Z,11.20
2018-01-19T08:39:03.818Z,11.10
2018-01-19T08:41:34.348Z,11.10
2018-01-19T08:44:03.033Z,11.00
2018-01-19T08:46:31.719Z,11.10
2018-01-19T08:49:00.403Z,11.30
2018-01-19T08:51:30.117Z,11.50
2018-01-19T08:53:59.005Z,11.50
2018-01-19T08:56:27.693Z,11.50
2018-01-19T08:58:56.584Z,11.60
2018-01-19T09:01:25.267Z,11.60
2018-01-19T09:03:54.161Z,11.70
2018-01-19T09:06:22.844Z,11.70
2018-01-19T09:08:52.350Z,11.50
2018-01-19T09:11:21.243Z,11.50
2018-01-19T09:13:49.927Z,11.70
2018-01-19T09:16:18.621Z,11.80
2018-01-19T09:18:47.408Z,11.80
2018-01-19T09:21:16.089Z,11.80
2018-01-19T09:23:45.595Z,11.70
2018-01-19T09:26:14.489Z,11.70
2018-01-19T09:28:43.996Z,11.70
2018-01-19T09:31:13.497Z,11.70
2018-01-19T09:33:42.230Z,11.70
2018-01-19T09:36:10.970Z,11.80
2018-01-19T09:38:39.656Z,11.90
2018-01-19T09:41:08.344Z,11.80
2018-01-19T09:43:37.238Z,11.70
2018-01-19T09:46:05.921Z,11.80
2018-01-19T09:48:34.815Z,11.90
2018-01-19T09:51:03.704Z,11.90
2018-01-19T09:53:32.441Z,11.90
2018-01-19T09:56:06.097Z,11.90
2018-01-19T09:58:34.783Z,11.90
2018-01-19T10:01:03.723Z,11.80
2018-01-19T10:03:33.381Z,11.90
2018-01-19T10:06:02.132Z,11.90
2018-01-19T10:08:31.570Z,12.10
2018-01-19T10:11:00.464Z,12.10
2018-01-19T10:13:29.150Z,12.20
2018-01-19T10:15:57.840Z,12.30
2018-01-19T10:18:26.624Z,12.50
2018-01-19T10:20:55.463Z,12.60
2018-01-19T10:23:24.200Z,12.70
2018-01-19T10:25:52.897Z,12.80
2018-01-19T10:28:21.572Z,13.00
2018-01-19T10:30:50.668Z,13.20
2018-01-19T10:33:19.456Z,13.20
2018-01-19T10:35:48.348Z,13.20
2018-01-19T10:38:17.140Z,13.20
2018-01-19T10:40:45.927Z,13.20
2018-01-19T10:43:14.826Z,13.40
2018-01-19T10:45:43.502Z,13.50
2018-01-19T10:48:12.344Z,13.50
2018-01-19T10:50:41.083Z,13.60
2018-01-19T10:53:09.771Z,13.60
2018-01-19T10:55:38.584Z,13.60
2018-01-19T10:58:07.452Z,13.50
2018-01-19T11:00:36.136Z,13.60
2018-01-19T11:03:05.031Z,13.60
2018-01-19T11:05:33.712Z,13.60
2018-01-19T11:08:02.400Z,13.60
2018-01-19T11:10:31.290Z,13.80
2018-01-19T11:12:59.980Z,13.80
2018-01-19T11:15:28.659Z,13.80
2018-01-19T11:17:57.587Z,13.80
2018-01-19T11:20:26.442Z,13.80
2018-01-19T11:22:55.332Z,13.80
2018-01-19T11:25:23.961Z,13.80
2018-01-19T11:27:52.704Z,13.80
2018-01-19T11:30:21.610Z,13.80
2018-01-19T11:32:50.533Z,14.00
2018-01-19T11:35:19.688Z,14.10
2018-01-19T11:37:48.577Z,14.10
2018-01-19T11:40:17.365Z,14.10
2018-01-19T11:42:46.052Z,14.10
2018-01-19T11:45:15.147Z,14.20
2018-01-19T11:47:44.039Z,14.30
2018-01-19T11:50:12.933Z,14.30
2018-01-19T11:52:41.618Z,14.30
2018-01-19T11:55:10.509Z,14.30
2018-01-19T11:57:39.401Z,14.30
2018-01-19T12:00:08.086Z,14.40
2018-01-19T12:02:36.983Z,14.40
2018-01-19T12:05:05.663Z,14.40
2018-01-19T12:07:34.450Z,14.20
2018-01-19T12:10:03.496Z,14.10
2018-01-19T12:12:32.896Z,14.20
2018-01-19T12:15:01.496Z,14.10
2018-01-19T12:17:30.227Z,14.20
2018-01-19T12:19:58.907Z,14.10
2018-01-19T12:22:27.648Z,14.20
2018-01-19T12:24:56.387Z,14.20
2018-01-19T12:27:25.068Z,14.20
2018-01-19T12:29:53.959Z,14.10
2018-01-19T12:32:22.750Z,14.00
2018-01-19T12:34:51.645Z,14.00
2018-01-19T12:37:20.432Z,14.20
2018-01-19T12:39:49.318Z,14.20
2018-01-19T12:42:18.279Z,14.40
2018-01-19T12:44:47.109Z,14.30
2018-01-19T12:47:15.886Z,14.10
2018-01-19T12:49:45.664Z,13.90
2018-01-19T12:52:14.708Z,13.90
2018-01-19T12:54:43.678Z,14.00
2018-01-19T12:57:12.780Z,14.10
2018-01-19T12:59:42.096Z,14.10
2018-01-19T13:02:11.076Z,14.00
2018-01-19T13:04:41.034Z,14.00
2018-01-19T13:07:09.857Z,14.00
2018-01-19T13:09:38.808Z,14.00
2018-01-19T13:12:07.572Z,14.10
2018-01-19T13:14:36.356Z,14.10
2018-01-19T13:17:05.250Z,14.10
2018-01-19T13:19:35.164Z,14.10
2018-01-19T13:22:03.952Z,14.10
2018-01-19T13:24:32.841Z,14.10
2018-01-19T13:27:01.733Z,14.30
2018-01-19T13:29:30.719Z,14.20
2018-01-19T13:31:59.614Z,14.30
2018-01-19T13:34:28.502Z,14.40
2018-01-19T13:36:57.189Z,14.40
2018-01-19T13:39:26.077Z,14.40
2018-01-19T13:41:54.763Z,14.40
2018-01-19T13:44:23.452Z,14.40
2018-01-19T13:46:52.343Z,14.40
2018-01-19T13:49:21.032Z,14.40
2018-01-19T13:51:49.719Z,14.40
2018-01-19T13:54:18.359Z,14.40
2018-01-19T13:56:47.805Z,14.30
2018-01-19T13:59:16.495Z,14.30
2018-01-19T14:01:46.207Z,14.20
2018-01-19T14:04:15.091Z,14.20
2018-01-19T14:06:44.187Z,14.20
2018-01-19T14:09:13.077Z,14.20
2018-01-19T14:11:41.695Z,14.30
2018-01-19T14:14:10.449Z,14.40
2018-01-19T14:16:39.077Z,14.50
2018-01-19T14:19:07.828Z,14.50
2018-01-19T14:21:36.509Z,14.50
2018-01-19T14:24:05.399Z,14.40
2018-01-19T14:26:34.028Z,14.30
2018-01-19T14:29:02.772Z,14.30
2018-01-19T14:31:31.663Z,14.30
2018-01-19T14:34:00.318Z,14.30
2018-01-19T14:36:29.037Z,14.30
2018-01-19T14:38:57.925Z,14.30
2018-01-19T14:41:26.722Z,14.30
2018-01-19T14:43:56.223Z,14.20
2018-01-19T14:46:25.120Z,14.20
2018-01-19T14:48:53.801Z,14.10
2018-01-19T14:51:22.691Z,14.20
2018-01-19T14:53:51.589Z,14.20
2018-01-19T14:56:20.474Z,14.30
2018-01-19T14:58:49.360Z,14.40
2018-01-19T15:01:18.253Z,14.90
2018-01-19T15:03:46.938Z,15.70
2018-01-19T15:06:15.563Z,15.70
2018-01-19T15:08:44.720Z,15.80
2018-01-19T15:11:13.424Z,15.50
2018-01-19T15:13:42.654Z,15.20
2018-01-19T15:16:11.347Z,15.20
2018-01-19T15:18:40.081Z,15.20
2018-01-19T15:21:08.875Z,15.10
2018-01-19T15:23:37.760Z,13.90
2018-01-19T15:26:06.445Z,14.80
2018-01-19T15:28:35.131Z,14.70
2018-01-19T15:31:04.025Z,14.70
2018-01-19T15:33:33.119Z,14.50
2018-01-19T15:36:01.812Z,14.50
2018-01-19T15:38:30.595Z,14.40
2018-01-19T15:40:59.692Z,14.20
2018-01-19T15:43:28.377Z,14.10
2018-01-19T15:45:57.473Z,14.10
2018-01-19T15:48:26.157Z,13.90
2018-01-19T15:50:54.846Z,13.90
2018-01-19T15:53:23.767Z,13.70
2018-01-19T15:55:52.566Z,13.80
2018-01-19T15:58:21.330Z,13.70
2018-01-19T16:00:50.211Z,13.70
2018-01-19T16:03:19.305Z,13.70
2018-01-19T16:05:48.754Z,13.70
2018-01-19T16:08:18.416Z,13.70
2018-01-19T16:10:47.101Z,13.60
2018-01-19T16:13:15.991Z,13.60
2018-01-19T16:15:44.889Z,13.50
2018-01-19T16:18:13.516Z,13.40
2018-01-19T16:20:42.257Z,13.40
2018-01-19T16:23:11.148Z,13.40
2018-01-19T16:25:39.837Z,13.40
2018-01-19T16:28:08.522Z,13.30
2018-01-19T16:30:37.826Z,13.30
2018-01-19T16:33:06.982Z,13.20
2018-01-19T16:35:35.906Z,13.10
2018-01-19T16:38:05.208Z,13.10
2018-01-19T16:40:34.379Z,13.10
2018-01-19T16:43:03.195Z,13.10
2018-01-19T16:45:32.306Z,13.00
2018-01-19T16:48:01.488Z,13.00
2018-01-19T16:50:30.459Z,13.00
2018-01-19T16:52:59.591Z,13.00
2018-01-19T16:55:28.608Z,12.90
2018-01-19T16:57:57.665Z,12.90
2018-01-19T17:00:26.657Z,12.80
2018-01-19T17:02:55.859Z,12.70
2018-01-19T17:05:24.771Z,12.70
2018-01-19T17:07:54.312Z,12.70
2018-01-19T17:10:24.054Z,12.60
2018-01-19T17:12:53.194Z,12.60
2018-01-19T17:15:22.277Z,12.60
2018-01-19T17:17:51.149Z,12.70
2018-01-19T17:20:20.037Z,12.70
2018-01-19T17:22:49.316Z,12.70
2018-01-19T17:25:18.645Z,12.70
2018-01-19T17:27:47.738Z,12.70
2018-01-19T17:30:17.008Z,12.70
2018-01-19T17:32:47.100Z,12.60
2018-01-19T17:35:16.357Z,12.60
2018-01-19T17:37:45.681Z,12.60
2018-01-19T17:40:15.834Z,12.60
2018-01-19T17:42:46.071Z,12.70
2018-01-19T17:45:14.967Z,12.70
2018-01-19T17:47:44.331Z,12.80
2018-01-19T17:50:13.580Z,12.80
2018-01-19T17:52:42.580Z,12.80
2018-01-19T17:55:11.810Z,12.90
2018-01-19T17:57:41.298Z,12.90
2018-01-19T18:00:10.357Z,12.80
2018-01-19T18:05:36.437Z,12.80
2018-01-19T18:08:05.789Z,12.80
2018-01-19T18:10:35.148Z,12.80
2018-01-19T18:13:04.567Z,12.80
2018-01-19T18:15:33.634Z,12.70
2018-01-19T18:18:03.157Z,12.60
2018-01-19T18:20:32.586Z,12.50
2018-01-19T18:23:01.988Z,12.60
2018-01-19T18:25:30.965Z,12.50
2018-01-19T18:27:59.916Z,14.50
2018-01-19T18:30:28.993Z,12.50
2018-01-19T18:32:59.276Z,12.50
2018-01-19T18:35:28.256Z,12.50
2018-01-19T18:37:57.706Z,12.50
2018-01-19T18:40:27.363Z,12.50
2018-01-19T18:42:56.253Z,12.60
2018-01-19T18:45:25.346Z,12.60
2018-01-19T18:47:54.237Z,12.60
2018-01-19T18:50:23.130Z,12.50
2018-01-19T18:52:52.015Z,12.50
2018-01-19T18:55:20.906Z,12.50
2018-01-19T18:57:49.595Z,12.50
2018-01-19T19:00:18.281Z,12.50
2018-01-19T19:02:47.177Z,12.50
2018-01-19T19:05:16.072Z,12.50
2018-01-19T19:07:44.752Z,12.50
2018-01-19T19:10:13.807Z,12.50
2018-01-19T19:12:42.530Z,12.60
2018-01-19T19:15:11.220Z,12.60
2018-01-19T19:17:39.901Z,12.60
2018-01-19T19:20:08.588Z,12.70
2018-01-19T19:22:37.463Z,12.60
2018-01-19T19:25:06.369Z,12.70
2018-01-19T19:27:35.261Z,12.80
2018-01-19T19:30:04.375Z,12.80
2018-01-19T19:32:33.256Z,12.80
2018-01-19T19:35:02.902Z,12.80
2018-01-19T19:37:31.644Z,12.70
2018-01-19T19:40:00.277Z,12.70
2018-01-19T19:42:29.023Z,12.70
2018-01-19T19:44:57.907Z,12.80
2018-01-19T19:47:26.808Z,12.80
2018-01-19T19:49:55.695Z,12.80
2018-01-19T19:52:24.592Z,12.80
2018-01-19T19:54:53.911Z,12.90
2018-01-19T19:57:22.742Z,12.90
2018-01-19T19:59:51.459Z,12.90
2018-01-19T20:02:20.530Z,12.90
2018-01-19T20:04:49.347Z,12.80
2018-01-19T20:07:18.447Z,12.80
2018-01-19T20:09:47.232Z,12.80
2018-01-19T20:12:16.131Z,12.70
2018-01-19T20:14:46.742Z,12.70
2018-01-19T20:17:20.968Z,12.70
2018-01-19T20:19:49.817Z,12.70
2018-01-19T20:22:18.556Z,12.70
2018-01-19T20:24:48.339Z,12.60
2018-01-19T20:27:17.506Z,12.60
2018-01-19T20:29:47.217Z,12.60
2018-01-19T20:32:16.582Z,12.60
2018-01-19T20:34:45.458Z,12.50
2018-01-19T20:37:14.150Z,12.50
2018-01-19T20:39:43.038Z,12.50
2018-01-19T20:42:11.725Z,12.50
2018-01-19T20:44:40.350Z,12.50
2018-01-19T20:47:09.251Z,12.50
2018-01-19T20:49:38.808Z,12.40
2018-01-19T20:52:07.700Z,12.40
2018-01-19T20:54:36.381Z,12.40
2018-01-19T20:57:05.169Z,12.40
2018-01-19T20:59:33.861Z,12.40
2018-01-19T21:02:02.751Z,12.40
2018-01-19T21:04:31.639Z,12.30
2018-01-19T21:07:00.532Z,12.40
2018-01-19T21:09:29.428Z,12.40
2018-01-19T21:11:58.313Z,12.40
2018-01-19T21:14:27.206Z,12.40
2018-01-19T21:16:56.091Z,12.40
2018-01-19T21:19:24.985Z,12.30
2018-01-19T21:21:53.872Z,12.30
2018-01-19T21:24:22.765Z,12.30
2018-01-19T21:26:51.454Z,12.30
2018-01-19T21:29:20.140Z,12.30
2018-01-19T21:31:49.137Z,12.30
2018-01-19T21:34:18.739Z,12.30
2018-01-19T21:36:48.874Z,12.30
2018-01-19T21:39:18.522Z,12.20
2018-01-19T21:41:48.998Z,12.20
2018-01-19T21:44:17.794Z,12.20
2018-01-19T21:46:46.590Z,12.30
2018-01-19T21:49:15.465Z,12.40
2018-01-19T21:51:44.153Z,12.40
2018-01-19T21:54:13.045Z,12.50
2018-01-19T21:56:41.932Z,12.50
2018-01-19T21:59:10.831Z,12.50
2018-01-19T22:01:39.714Z,12.60
2018-01-19T22:04:08.572Z,12.70
2018-01-19T22:06:37.294Z,12.60
2018-01-19T22:09:06.470Z,12.70
2018-01-19T22:11:35.289Z,12.70
2018-01-19T22:14:04.384Z,12.70
2018-01-19T22:16:33.289Z,12.70
2018-01-19T22:19:02.979Z,12.80
2018-01-19T22:21:31.868Z,12.80
2018-01-19T22:24:00.766Z,12.80
2018-01-19T22:26:29.855Z,12.70
2018-01-19T22:28:58.747Z,11.50
2018-01-19T22:31:28.456Z,12.80
2018-01-19T22:33:57.347Z,12.80
2018-01-19T22:36:26.035Z,12.90
2018-01-19T22:38:55.128Z,13.00
2018-01-19T22:41:23.953Z,13.00
2018-01-19T22:43:52.724Z,13.00
2018-01-19T22:46:22.335Z,13.00
2018-01-19T22:48:51.107Z,12.90
2018-01-19T22:51:19.997Z,12.90
2018-01-19T22:53:49.909Z,13.00
2018-01-19T22:56:18.799Z,13.00
2018-01-19T22:58:47.692Z,13.00
2018-01-19T23:01:16.596Z,13.00
2018-01-19T23:03:45.485Z,12.90
2018-01-19T23:06:14.265Z,12.90
2018-01-19T23:08:43.165Z,12.80
2018-01-19T23:11:12.349Z,12.90
2018-01-19T23:13:41.147Z,12.90
2018-01-19T23:16:09.840Z,12.90
2018-01-19T23:18:38.717Z,13.00
2018-01-19T23:21:07.449Z,13.00
2018-01-19T23:23:36.296Z,13.00
2018-01-19T23:26:05.257Z,13.00
2018-01-19T23:28:34.083Z,12.90
2018-01-19T23:31:02.767Z,12.90
2018-01-19T23:33:31.861Z,12.90
2018-01-19T23:36:00.699Z,12.80
2018-01-19T23:38:30.676Z,12.80
2018-01-19T23:40:59.554Z,12.80
2018-01-19T23:43:28.706Z,12.80
2018-01-19T23:45:59.187Z,12.80
2018-01-19T23:48:28.079Z,12.80
2018-01-19T23:50:57.515Z,12.80
2018-01-19T23:53:26.785Z,12.80
2018-01-19T23:55:55.824Z,12.80
2018-01-19T23:58:24.465Z,12.80
